sensor_id;sensor_type;location;lat;lon;timestamp;pressure;altitude;pressure_sealevel;temperature;humidity
40155;BME280;25875;48.202;16.334;2023-04-26T00:02:18;98829.72;;;9.78;54.08
40155;BME280;25875;48.202;16.334;2023-04-26T00:04:45;98826.47;;;9.73;54.17
40155;BME280;25875;48.202;16.334;2023-04-26T00:07:12;98835.28;;;9.73;54.03
40155;BME280;25875;48.202;16.334;2023-04-26T00:09:40;98836.22;;;9.72;53.86
40155;BME280;25875;48.202;16.334;2023-04-26T00:12:08;98800.38;;;9.52;53.98
40155;BME280;25875;48.202;16.334;2023-04-26T00:14:37;98837.44;;;9.67;53.65
40155;BME280;25875;48.202;16.334;2023-04-26T00:17:04;98839.41;;;9.63;53.76
40155;BME280;25875;48.202;16.334;2023-04-26T00:19:31;98849.16;;;9.62;53.54
40155;BME280;25875;48.202;16.334;2023-04-26T00:21:58;98548.50;;;7.86;53.50
40155;BME280;25875;48.202;16.334;2023-04-26T00:24:24;98850.00;;;9.63;53.62
40155;BME280;25875;48.202;16.334;2023-04-26T00:26:52;98853.59;;;9.62;53.52
40155;BME280;25875;48.202;16.334;2023-04-26T00:29:19;98840.63;;;9.57;53.65
40155;BME280;25875;48.202;16.334;2023-04-26T00:31:48;98839.69;;;9.58;53.63
40155;BME280;25875;48.202;16.334;2023-04-26T00:34:14;98843.28;;;9.57;53.62
40155;BME280;25875;48.202;16.334;2023-04-26T00:36:43;98844.22;;;9.56;53.67
40155;BME280;25875;48.202;16.334;2023-04-26T00:39:10;98858.47;;;9.54;53.62
40155;BME280;25875;48.202;16.334;2023-04-26T00:41:37;98856.94;;;9.50;53.89
40155;BME280;25875;48.202;16.334;2023-04-26T00:44:04;98865.81;;;9.49;53.85
40155;BME280;25875;48.202;16.334;2023-04-26T00:46:31;98860.53;;;9.49;53.79
40155;BME280;25875;48.202;16.334;2023-04-26T00:48:59;98864.22;;;9.46;53.86
40155;BME280;25875;48.202;16.334;2023-04-26T00:51:26;98860.72;;;9.46;53.92
40155;BME280;25875;48.202;16.334;2023-04-26T00:53:53;98864.31;;;9.45;53.84
40155;BME280;25875;48.202;16.334;2023-04-26T00:56:20;98864.41;;;9.43;54.00
40155;BME280;25875;48.202;16.334;2023-04-26T00:58:48;98861.75;;;9.43;53.81
40155;BME280;25875;48.202;16.334;2023-04-26T01:01:15;98872.31;;;9.43;53.89
40155;BME280;25875;48.202;16.334;2023-04-26T01:03:42;98871.47;;;9.43;53.70
40155;BME280;25875;48.202;16.334;2023-04-26T01:06:12;98863.53;;;9.43;53.71
40155;BME280;25875;48.202;16.334;2023-04-26T01:08:39;98858.25;;;9.43;53.50
40155;BME280;25875;48.202;16.334;2023-04-26T01:11:06;98854.84;;;9.41;53.45
40155;BME280;25875;48.202;16.334;2023-04-26T01:13:33;98861.13;;;9.38;53.50
40155;BME280;25875;48.202;16.334;2023-04-26T01:16:01;98861.13;;;9.38;53.20
40155;BME280;25875;48.202;16.334;2023-04-26T01:18:29;98858.50;;;9.38;53.17
40155;BME280;25875;48.202;16.334;2023-04-26T01:20:55;98855.75;;;9.40;52.89
40155;BME280;25875;48.202;16.334;2023-04-26T01:23:24;98769.88;;;8.85;52.69
40155;BME280;25875;48.202;16.334;2023-04-26T01:25:51;98871.81;;;9.37;52.59
40155;BME280;25875;48.202;16.334;2023-04-26T01:28:20;98867.53;;;9.34;52.42
40155;BME280;25875;48.202;16.334;2023-04-26T01:30:47;98870.28;;;9.32;52.45
40155;BME280;25875;48.202;16.334;2023-04-26T01:33:14;98878.28;;;9.31;52.21
40155;BME280;25875;48.202;16.334;2023-04-26T01:35:41;98873.84;;;9.31;52.18
40155;BME280;25875;48.202;16.334;2023-04-26T01:38:08;98879.22;;;9.30;51.63
40155;BME280;25875;48.202;16.334;2023-04-26T01:40:37;98875.75;;;9.29;51.59
40155;BME280;25875;48.202;16.334;2023-04-26T01:43:03;98887.09;;;9.31;51.62
40155;BME280;25875;48.202;16.334;2023-04-26T01:45:32;98883.59;;;9.31;51.54
40155;BME280;25875;48.202;16.334;2023-04-26T01:47:59;98888.03;;;9.30;51.38
40155;BME280;25875;48.202;16.334;2023-04-26T01:50:25;98851.34;;;9.09;51.29
40155;BME280;25875;48.202;16.334;2023-04-26T01:52:52;98887.25;;;9.28;51.19
40155;BME280;25875;48.202;16.334;2023-04-26T01:55:19;98891.78;;;9.26;51.08
40155;BME280;25875;48.202;16.334;2023-04-26T01:57:47;98894.50;;;9.25;51.08
40155;BME280;25875;48.202;16.334;2023-04-26T02:00:14;98894.50;;;9.25;51.12
40155;BME280;25875;48.202;16.334;2023-04-26T02:02:41;98892.72;;;9.25;51.01
40155;BME280;25875;48.202;16.334;2023-04-26T02:05:09;98848.63;;;8.94;51.01
40155;BME280;25875;48.202;16.334;2023-04-26T02:07:36;98890.25;;;9.22;51.08
40155;BME280;25875;48.202;16.334;2023-04-26T02:10:04;98891.94;;;9.23;51.12
40155;BME280;25875;48.202;16.334;2023-04-26T02:12:31;98886.00;;;9.20;51.01
40155;BME280;25875;48.202;16.334;2023-04-26T02:14:59;98859.88;;;8.98;50.76
40155;BME280;25875;48.202;16.334;2023-04-26T02:17:26;98897.66;;;9.16;51.25
40155;BME280;25875;48.202;16.334;2023-04-26T02:19:53;98901.22;;;9.15;50.86
40155;BME280;25875;48.202;16.334;2023-04-26T02:22:20;98900.47;;;9.13;50.85
40155;BME280;25875;48.202;16.334;2023-04-26T02:24:49;98865.69;;;8.89;50.95
40155;BME280;25875;48.202;16.334;2023-04-26T02:27:16;98814.72;;;8.55;51.13
40155;BME280;25875;48.202;16.334;2023-04-26T02:29:43;98896.38;;;9.07;51.26
40155;BME280;25875;48.202;16.334;2023-04-26T02:32:11;98899.03;;;9.07;51.23
40155;BME280;25875;48.202;16.334;2023-04-26T02:34:38;98889.63;;;9.02;51.40
40155;BME280;25875;48.202;16.334;2023-04-26T02:37:05;98897.75;;;8.98;51.48
40155;BME280;25875;48.202;16.334;2023-04-26T02:39:33;98893.31;;;8.99;51.58
40155;BME280;25875;48.202;16.334;2023-04-26T02:41:59;98895.94;;;8.99;51.52
40155;BME280;25875;48.202;16.334;2023-04-26T02:44:28;98896.03;;;8.97;51.55
40155;BME280;25875;48.202;16.334;2023-04-26T02:46:54;98877.38;;;8.85;51.45
40155;BME280;25875;48.202;16.334;2023-04-26T02:49:22;98897.22;;;8.92;51.30
40155;BME280;25875;48.202;16.334;2023-04-26T02:51:49;98899.09;;;8.90;51.24
40155;BME280;25875;48.202;16.334;2023-04-26T02:54:16;98900.22;;;8.86;51.17
40155;BME280;25875;48.202;16.334;2023-04-26T02:56:43;98894.25;;;8.82;51.21
40155;BME280;25875;48.202;16.334;2023-04-26T02:59:09;98898.69;;;8.82;51.16
40155;BME280;25875;48.202;16.334;2023-04-26T03:01:36;98896.28;;;8.77;51.05
40155;BME280;25875;48.202;16.334;2023-04-26T03:04:03;98905.41;;;8.72;51.02
40155;BME280;25875;48.202;16.334;2023-04-26T03:06:31;98898.50;;;8.69;50.99
40155;BME280;25875;48.202;16.334;2023-04-26T03:08:58;98892.88;;;8.59;50.87
40155;BME280;25875;48.202;16.334;2023-04-26T03:11:25;98916.06;;;8.70;51.13
40155;BME280;25875;48.202;16.334;2023-04-26T03:13:51;98917.00;;;8.69;50.90
40155;BME280;25875;48.202;16.334;2023-04-26T03:16:19;98882.03;;;8.48;50.73
40155;BME280;25875;48.202;16.334;2023-04-26T03:18:45;98907.34;;;8.68;50.69
40155;BME280;25875;48.202;16.334;2023-04-26T03:21:12;98903.09;;;8.65;50.60
40155;BME280;25875;48.202;16.334;2023-04-26T03:23:40;98904.88;;;8.65;50.66
40155;BME280;25875;48.202;16.334;2023-04-26T03:26:07;98906.75;;;8.63;50.71
40155;BME280;25875;48.202;16.334;2023-04-26T03:28:33;98908.63;;;8.61;50.65
40155;BME280;25875;48.202;16.334;2023-04-26T03:31:00;98812.97;;;8.07;50.56
40155;BME280;25875;48.202;16.334;2023-04-26T03:33:27;98862.41;;;8.37;50.47
40155;BME280;25875;48.202;16.334;2023-04-26T03:35:55;98910.66;;;8.56;50.41
40155;BME280;25875;48.202;16.334;2023-04-26T03:38:22;98912.53;;;8.54;50.34
40155;BME280;25875;48.202;16.334;2023-04-26T03:40:50;98920.63;;;8.51;50.03
40155;BME280;25875;48.202;16.334;2023-04-26T03:43:17;98835.75;;;7.92;50.16
40155;BME280;25875;48.202;16.334;2023-04-26T03:45:46;98934.94;;;8.47;50.08
40155;BME280;25875;48.202;16.334;2023-04-26T03:48:14;98935.88;;;8.46;50.12
40155;BME280;25875;48.202;16.334;2023-04-26T03:50:41;98870.91;;;7.93;50.06
40155;BME280;25875;48.202;16.334;2023-04-26T03:53:09;98931.00;;;8.38;49.93
40155;BME280;25875;48.202;16.334;2023-04-26T03:55:36;98943.34;;;8.38;49.95
40155;BME280;25875;48.202;16.334;2023-04-26T03:58:04;98897.81;;;8.17;50.01
40155;BME280;25875;48.202;16.334;2023-04-26T04:00:32;98877.56;;;8.00;50.00
40155;BME280;25875;48.202;16.334;2023-04-26T04:02:59;98929.44;;;8.34;50.17
40155;BME280;25875;48.202;16.334;2023-04-26T04:05:25;98936.44;;;8.35;50.07
40155;BME280;25875;48.202;16.334;2023-04-26T04:07:52;98940.88;;;8.34;50.06
40155;BME280;25875;48.202;16.334;2023-04-26T04:10:20;98941.72;;;8.35;49.95
40155;BME280;25875;48.202;16.334;2023-04-26T04:12:48;98841.75;;;7.79;50.06
40155;BME280;25875;48.202;16.334;2023-04-26T04:15:17;98939.06;;;8.35;49.95
40155;BME280;25875;48.202;16.334;2023-04-26T04:17:44;98949.72;;;8.33;50.19
40155;BME280;25875;48.202;16.334;2023-04-26T04:20:12;98952.59;;;8.29;50.14
40155;BME280;25875;48.202;16.334;2023-04-26T04:22:38;98960.50;;;8.29;49.99
40155;BME280;25875;48.202;16.334;2023-04-26T04:25:06;98963.16;;;8.29;50.19
40155;BME280;25875;48.202;16.334;2023-04-26T04:27:33;98967.66;;;8.27;50.20
40155;BME280;25875;48.202;16.334;2023-04-26T04:30:01;98985.28;;;8.26;50.18
40155;BME280;25875;48.202;16.334;2023-04-26T04:32:30;98970.38;;;8.25;50.25
40155;BME280;25875;48.202;16.334;2023-04-26T04:34:58;98827.34;;;7.34;50.29
40155;BME280;25875;48.202;16.334;2023-04-26T04:37:25;98937.09;;;8.06;50.36
40155;BME280;25875;48.202;16.334;2023-04-26T04:39:53;98973.03;;;8.25;50.42
40155;BME280;25875;48.202;16.334;2023-04-26T04:42:20;98977.53;;;8.23;50.48
40155;BME280;25875;48.202;16.334;2023-04-26T04:44:46;98978.53;;;8.21;50.51
40155;BME280;25875;48.202;16.334;2023-04-26T04:47:14;98961.31;;;8.14;50.63
40155;BME280;25875;48.202;16.334;2023-04-26T04:49:43;98981.03;;;8.24;50.55
40155;BME280;25875;48.202;16.334;2023-04-26T04:52:10;98986.38;;;8.22;50.79
40155;BME280;25875;48.202;16.334;2023-04-26T04:54:36;98974.97;;;8.22;50.84
40155;BME280;25875;48.202;16.334;2023-04-26T04:57:04;98974.97;;;8.22;50.98
40155;BME280;25875;48.202;16.334;2023-04-26T04:59:30;98979.41;;;8.21;51.07
40155;BME280;25875;48.202;16.334;2023-04-26T05:01:57;98986.31;;;8.24;51.38
40155;BME280;25875;48.202;16.334;2023-04-26T05:04:24;98965.28;;;8.05;51.50
40155;BME280;25875;48.202;16.334;2023-04-26T05:06:52;98982.72;;;8.25;51.53
40155;BME280;25875;48.202;16.334;2023-04-26T05:09:19;98993.22;;;8.26;51.56
40155;BME280;25875;48.202;16.334;2023-04-26T05:11:45;98991.34;;;8.28;51.65
40155;BME280;25875;48.202;16.334;2023-04-26T05:14:12;98990.50;;;8.28;51.73
40155;BME280;25875;48.202;16.334;2023-04-26T05:16:39;98986.38;;;8.22;51.87
40155;BME280;25875;48.202;16.334;2023-04-26T05:19:06;98998.41;;;8.28;51.94
40155;BME280;25875;48.202;16.334;2023-04-26T05:21:33;98988.69;;;8.28;52.00
40155;BME280;25875;48.202;16.334;2023-04-26T05:24:01;98722.00;;;6.62;51.88
40155;BME280;25875;48.202;16.334;2023-04-26T05:26:28;99008.13;;;8.27;51.92
40155;BME280;25875;48.202;16.334;2023-04-26T05:28:58;99001.91;;;8.28;51.95
40155;BME280;25875;48.202;16.334;2023-04-26T05:31:24;98885.91;;;7.58;51.85
40155;BME280;25875;48.202;16.334;2023-04-26T05:33:51;99011.44;;;8.31;51.85
40155;BME280;25875;48.202;16.334;2023-04-26T05:36:18;99011.44;;;8.31;51.82
40155;BME280;25875;48.202;16.334;2023-04-26T05:38:45;99006.94;;;8.33;51.74
40155;BME280;25875;48.202;16.334;2023-04-26T05:41:14;99012.94;;;8.37;51.53
40155;BME280;25875;48.202;16.334;2023-04-26T05:43:44;99011.06;;;8.39;51.50
40155;BME280;25875;48.202;16.334;2023-04-26T05:46:13;99013.69;;;8.39;51.37
40155;BME280;25875;48.202;16.334;2023-04-26T05:48:40;99025.88;;;8.41;51.14
40155;BME280;25875;48.202;16.334;2023-04-26T05:51:07;99031.00;;;8.44;50.95
40155;BME280;25875;48.202;16.334;2023-04-26T05:53:34;99027.38;;;8.47;50.99
40155;BME280;25875;48.202;16.334;2023-04-26T05:56:01;99027.22;;;8.50;50.85
40155;BME280;25875;48.202;16.334;2023-04-26T05:58:29;99029.59;;;8.54;50.63
40155;BME280;25875;48.202;16.334;2023-04-26T06:00:58;99034.66;;;8.59;50.53
40155;BME280;25875;48.202;16.334;2023-04-26T06:03:24;99041.56;;;8.61;50.26
40155;BME280;25875;48.202;16.334;2023-04-26T06:05:51;99033.56;;;8.63;50.28
40155;BME280;25875;48.202;16.334;2023-04-26T06:08:18;99040.31;;;8.68;49.87
40155;BME280;25875;48.202;16.334;2023-04-26T06:10:45;99048.69;;;8.77;49.79
40155;BME280;25875;48.202;16.334;2023-04-26T06:13:12;98980.00;;;8.44;49.42
40155;BME280;25875;48.202;16.334;2023-04-26T06:15:40;99048.72;;;8.92;49.24
40155;BME280;25875;48.202;16.334;2023-04-26T06:18:07;99053.44;;;9.03;48.96
40155;BME280;25875;48.202;16.334;2023-04-26T06:20:33;99052.88;;;9.14;48.73
40155;BME280;25875;48.202;16.334;2023-04-26T06:23:00;99017.88;;;9.09;48.56
40155;BME280;25875;48.202;16.334;2023-04-26T06:25:27;99052.19;;;9.43;48.54
40155;BME280;25875;48.202;16.334;2023-04-26T06:27:54;99063.53;;;9.61;48.32
40155;BME280;25875;48.202;16.334;2023-04-26T06:30:20;99063.19;;;9.83;47.91
40155;BME280;25875;48.202;16.334;2023-04-26T06:32:49;99052.31;;;10.03;47.00
40155;BME280;25875;48.202;16.334;2023-04-26T06:35:15;99005.88;;;9.98;46.45
40155;BME280;25875;48.202;16.334;2023-04-26T06:37:42;99062.97;;;10.47;45.96
40155;BME280;25875;48.202;16.334;2023-04-26T06:40:10;98996.06;;;10.44;45.63
40155;BME280;25875;48.202;16.334;2023-04-26T06:42:38;99055.97;;;11.05;44.95
40155;BME280;25875;48.202;16.334;2023-04-26T06:45:06;99008.31;;;11.03;44.44
40155;BME280;25875;48.202;16.334;2023-04-26T06:47:33;99058.16;;;11.68;43.53
40155;BME280;25875;48.202;16.334;2023-04-26T06:50:02;99061.56;;;11.97;42.87
40155;BME280;25875;48.202;16.334;2023-04-26T06:52:29;99051.84;;;12.24;42.80
40155;BME280;25875;48.202;16.334;2023-04-26T06:54:56;99052.53;;;12.53;42.29
40155;BME280;25875;48.202;16.334;2023-04-26T06:57:22;99060.44;;;12.80;41.64
40155;BME280;25875;48.202;16.334;2023-04-26T06:59:50;99062.38;;;13.03;41.12
40155;BME280;25875;48.202;16.334;2023-04-26T07:02:17;99051.59;;;13.18;41.42
40155;BME280;25875;48.202;16.334;2023-04-26T07:04:43;99049.47;;;13.23;41.03
40155;BME280;25875;48.202;16.334;2023-04-26T07:07:12;98975.25;;;12.69;41.19
40155;BME280;25875;48.202;16.334;2023-04-26T07:09:40;99046.91;;;13.21;41.37
40155;BME280;25875;48.202;16.334;2023-04-26T07:12:10;99042.63;;;13.31;40.26
40155;BME280;25875;48.202;16.334;2023-04-26T07:14:36;99045.28;;;13.57;40.55
40155;BME280;25875;48.202;16.334;2023-04-26T07:17:05;99044.34;;;13.82;40.20
40155;BME280;25875;48.202;16.334;2023-04-26T07:19:32;99002.91;;;13.77;39.27
40155;BME280;25875;48.202;16.334;2023-04-26T07:21:58;99040.59;;;14.08;39.17
40155;BME280;25875;48.202;16.334;2023-04-26T07:24:27;99013.91;;;13.97;38.98
40155;BME280;25875;48.202;16.334;2023-04-26T07:26:53;99045.63;;;14.24;39.21
40155;BME280;25875;48.202;16.334;2023-04-26T07:29:20;99047.56;;;14.22;39.49
40155;BME280;25875;48.202;16.334;2023-04-26T07:31:48;99052.63;;;14.13;39.33
40155;BME280;25875;48.202;16.334;2023-04-26T07:34:14;99053.28;;;14.28;39.41
40155;BME280;25875;48.202;16.334;2023-04-26T07:36:41;99053.59;;;14.48;39.26
40155;BME280;25875;48.202;16.334;2023-04-26T07:39:08;98974.63;;;14.23;38.76
40155;BME280;25875;48.202;16.334;2023-04-26T07:41:38;99004.28;;;14.53;38.76
40155;BME280;25875;48.202;16.334;2023-04-26T07:44:05;99049.03;;;14.96;38.74
40155;BME280;25875;48.202;16.334;2023-04-26T07:46:32;99050.47;;;14.78;38.72
40155;BME280;25875;48.202;16.334;2023-04-26T07:48:59;99045.88;;;14.56;39.37
40155;BME280;25875;48.202;16.334;2023-04-26T07:51:26;99052.44;;;14.28;39.21
40155;BME280;25875;48.202;16.334;2023-04-26T07:53:53;99061.63;;;14.00;39.69
40155;BME280;25875;48.202;16.334;2023-04-26T07:56:22;99054.25;;;13.79;39.65
40155;BME280;25875;48.202;16.334;2023-04-26T07:58:51;99056.66;;;13.59;39.78
40155;BME280;25875;48.202;16.334;2023-04-26T08:01:18;99052.84;;;13.50;40.26
40155;BME280;25875;48.202;16.334;2023-04-26T08:03:45;99059.03;;;13.38;39.89
40155;BME280;25875;48.202;16.334;2023-04-26T08:06:13;99063.50;;;13.25;39.98
40155;BME280;25875;48.202;16.334;2023-04-26T08:08:40;99071.50;;;13.12;40.24
40155;BME280;25875;48.202;16.334;2023-04-26T08:11:09;99075.13;;;12.98;40.78
40155;BME280;25875;48.202;16.334;2023-04-26T08:13:36;99066.41;;;12.83;40.62
40155;BME280;25875;48.202;16.334;2023-04-26T08:16:04;99081.81;;;12.78;40.66
40155;BME280;25875;48.202;16.334;2023-04-26T08:18:31;99076.06;;;12.72;40.71
40155;BME280;25875;48.202;16.334;2023-04-26T08:20:58;99023.59;;;12.36;41.05
40155;BME280;25875;48.202;16.334;2023-04-26T08:23:25;99050.38;;;12.33;41.19
40155;BME280;25875;48.202;16.334;2023-04-26T08:25:52;99027.13;;;12.09;40.72
40155;BME280;25875;48.202;16.334;2023-04-26T08:28:19;99060.06;;;12.07;41.01
40155;BME280;25875;48.202;16.334;2023-04-26T08:30:46;99070.06;;;12.16;41.22
40155;BME280;25875;48.202;16.334;2023-04-26T08:33:16;99092.22;;;12.16;40.68
40155;BME280;25875;48.202;16.334;2023-04-26T08:35:43;99073.75;;;12.28;40.79
40155;BME280;25875;48.202;16.334;2023-04-26T08:38:10;99066.03;;;12.37;40.39
40155;BME280;25875;48.202;16.334;2023-04-26T08:40:37;99040.06;;;12.28;40.42
40155;BME280;25875;48.202;16.334;2023-04-26T08:43:07;99050.19;;;12.36;40.09
40155;BME280;25875;48.202;16.334;2023-04-26T08:45:35;99081.69;;;12.55;40.06
40155;BME280;25875;48.202;16.334;2023-04-26T08:48:05;99072.66;;;12.57;40.11
40155;BME280;25875;48.202;16.334;2023-04-26T08:50:38;99023.03;;;12.18;40.05
40155;BME280;25875;48.202;16.334;2023-04-26T08:53:04;99083.50;;;12.54;40.39
40155;BME280;25875;48.202;16.334;2023-04-26T08:55:32;99082.00;;;12.50;40.32
40155;BME280;25875;48.202;16.334;2023-04-26T08:58:01;99084.22;;;12.43;40.07
40155;BME280;25875;48.202;16.334;2023-04-26T09:00:29;99086.63;;;12.34;40.32
40155;BME280;25875;48.202;16.334;2023-04-26T09:02:56;99092.06;;;12.32;40.55
40155;BME280;25875;48.202;16.334;2023-04-26T09:05:23;99097.84;;;12.51;40.68
40155;BME280;25875;48.202;16.334;2023-04-26T09:07:55;99080.00;;;12.79;39.84
40155;BME280;25875;48.202;16.334;2023-04-26T09:10:23;99027.03;;;12.63;39.78
40155;BME280;25875;48.202;16.334;2023-04-26T09:12:51;99035.75;;;12.65;39.57
40155;BME280;25875;48.202;16.334;2023-04-26T09:15:19;99053.63;;;12.76;39.56
40155;BME280;25875;48.202;16.334;2023-04-26T09:17:47;99076.28;;;13.07;39.08
40155;BME280;25875;48.202;16.334;2023-04-26T09:20:20;99074.69;;;13.17;38.14
40155;BME280;25875;48.202;16.334;2023-04-26T09:22:48;99061.81;;;13.24;38.55
40155;BME280;25875;48.202;16.334;2023-04-26T09:25:18;99071.38;;;13.26;37.87
40155;BME280;25875;48.202;16.334;2023-04-26T09:27:52;99055.22;;;13.16;38.19
40155;BME280;25875;48.202;16.334;2023-04-26T09:30:20;99064.59;;;13.09;38.08
40155;BME280;25875;48.202;16.334;2023-04-26T09:32:52;99079.59;;;12.98;37.10
40155;BME280;25875;48.202;16.334;2023-04-26T09:35:29;99074.06;;;12.88;36.55
40155;BME280;25875;48.202;16.334;2023-04-26T09:37:57;98872.66;;;11.63;38.51
40155;BME280;25875;48.202;16.334;2023-04-26T09:40:28;99067.47;;;12.81;38.41
40155;BME280;25875;48.202;16.334;2023-04-26T09:43:00;99059.59;;;12.92;38.20
40155;BME280;25875;48.202;16.334;2023-04-26T09:45:28;99057.03;;;13.16;38.55
40155;BME280;25875;48.202;16.334;2023-04-26T09:48:11;98958.75;;;12.89;36.75
40155;BME280;25875;48.202;16.334;2023-04-26T09:50:38;99045.22;;;13.69;37.48
40155;BME280;25875;48.202;16.334;2023-04-26T09:53:05;99016.09;;;13.55;37.28
40155;BME280;25875;48.202;16.334;2023-04-26T09:55:34;99005.03;;;13.48;36.93
40155;BME280;25875;48.202;16.334;2023-04-26T09:58:07;99014.72;;;13.50;36.53
40155;BME280;25875;48.202;16.334;2023-04-26T10:00:36;99027.94;;;13.51;37.29
40155;BME280;25875;48.202;16.334;2023-04-26T10:03:04;99043.13;;;13.62;37.94
40155;BME280;25875;48.202;16.334;2023-04-26T10:05:33;99057.06;;;13.65;37.73
40155;BME280;25875;48.202;16.334;2023-04-26T10:08:02;99037.13;;;13.71;37.45
40155;BME280;25875;48.202;16.334;2023-04-26T10:10:29;99036.88;;;13.87;37.59
40155;BME280;25875;48.202;16.334;2023-04-26T10:12:58;98886.38;;;12.97;36.94
40155;BME280;25875;48.202;16.334;2023-04-26T10:15:26;99041.56;;;13.83;37.40
40155;BME280;25875;48.202;16.334;2023-04-26T10:17:53;99045.81;;;13.86;37.65
40155;BME280;25875;48.202;16.334;2023-04-26T10:20:23;99042.31;;;13.85;37.21
40155;BME280;25875;48.202;16.334;2023-04-26T10:22:54;98988.00;;;13.51;37.77
40155;BME280;25875;48.202;16.334;2023-04-26T10:25:34;99032.78;;;13.94;36.80
40155;BME280;25875;48.202;16.334;2023-04-26T10:28:03;99040.47;;;14.09;37.78
40155;BME280;25875;48.202;16.334;2023-04-26T10:30:30;99029.47;;;14.14;37.54
40155;BME280;25875;48.202;16.334;2023-04-26T10:33:15;99023.94;;;14.17;36.13
40155;BME280;25875;48.202;16.334;2023-04-26T10:36:09;99037.38;;;14.16;36.27
40155;BME280;25875;48.202;16.334;2023-04-26T10:38:39;99038.44;;;14.13;36.77
40155;BME280;25875;48.202;16.334;2023-04-26T10:41:35;99033.34;;;14.10;35.72
40155;BME280;25875;48.202;16.334;2023-04-26T10:44:37;98876.88;;;13.05;35.90
40155;BME280;25875;48.202;16.334;2023-04-26T10:47:06;98938.16;;;13.40;37.83
40155;BME280;25875;48.202;16.334;2023-04-26T10:49:44;99031.31;;;13.90;36.01
40155;BME280;25875;48.202;16.334;2023-04-26T10:52:13;99038.16;;;13.81;37.92
40155;BME280;25875;48.202;16.334;2023-04-26T10:54:57;99001.72;;;13.58;37.05
40155;BME280;25875;48.202;16.334;2023-04-26T10:57:45;98872.78;;;12.89;36.20
40155;BME280;25875;48.202;16.334;2023-04-26T11:00:28;99036.53;;;13.91;35.84
40155;BME280;25875;48.202;16.334;2023-04-26T11:02:56;98972.66;;;13.78;36.76
40155;BME280;25875;48.202;16.334;2023-04-26T11:08:23;98957.09;;;13.96;36.18
40155;BME280;25875;48.202;16.334;2023-04-26T11:10:56;99010.44;;;14.07;35.27
40155;BME280;25875;48.202;16.334;2023-04-26T11:13:23;99023.38;;;14.01;35.47
40155;BME280;25875;48.202;16.334;2023-04-26T11:16:01;99032.44;;;13.98;33.87
40155;BME280;25875;48.202;16.334;2023-04-26T11:18:29;99024.78;;;13.94;35.87
40155;BME280;25875;48.202;16.334;2023-04-26T11:20:57;99026.94;;;13.89;36.18
40155;BME280;25875;48.202;16.334;2023-04-26T11:23:26;99021.84;;;13.86;36.59
40155;BME280;25875;48.202;16.334;2023-04-26T11:25:56;99011.69;;;13.91;36.01
40155;BME280;25875;48.202;16.334;2023-04-26T11:28:23;98984.88;;;13.81;36.50
40155;BME280;25875;48.202;16.334;2023-04-26T11:30:50;99015.88;;;14.06;36.43
40155;BME280;25875;48.202;16.334;2023-04-26T11:33:20;99020.53;;;14.15;35.61
40155;BME280;25875;48.202;16.334;2023-04-26T11:35:48;99014.00;;;14.19;35.32
40155;BME280;25875;48.202;16.334;2023-04-26T11:38:16;98586.19;;;11.73;35.10
40155;BME280;25875;48.202;16.334;2023-04-26T11:40:43;98920.13;;;13.80;35.29
40155;BME280;25875;48.202;16.334;2023-04-26T11:43:12;98958.72;;;14.10;34.61
40155;BME280;25875;48.202;16.334;2023-04-26T11:45:39;99007.25;;;14.26;34.39
40155;BME280;25875;48.202;16.334;2023-04-26T11:48:09;98962.84;;;14.14;34.07
40155;BME280;25875;48.202;16.334;2023-04-26T11:50:38;98999.50;;;14.34;34.65
40155;BME280;25875;48.202;16.334;2023-04-26T11:53:07;99001.44;;;14.32;34.26
40155;BME280;25875;48.202;16.334;2023-04-26T11:55:34;99003.84;;;14.24;34.40
40155;BME280;25875;48.202;16.334;2023-04-26T11:58:09;98896.53;;;13.39;33.39
40155;BME280;25875;48.202;16.334;2023-04-26T12:00:36;99009.13;;;14.13;34.50
40155;BME280;25875;48.202;16.334;2023-04-26T12:03:04;99019.91;;;14.11;34.61
40155;BME280;25875;48.202;16.334;2023-04-26T12:05:36;99020.13;;;14.08;34.44
40155;BME280;25875;48.202;16.334;2023-04-26T12:08:03;99010.16;;;13.99;33.87
40155;BME280;25875;48.202;16.334;2023-04-26T12:10:34;98890.53;;;13.25;34.21
40155;BME280;25875;48.202;16.334;2023-04-26T12:13:01;99014.69;;;14.10;34.24
40155;BME280;25875;48.202;16.334;2023-04-26T12:15:29;98995.97;;;14.23;34.27
40155;BME280;25875;48.202;16.334;2023-04-26T12:17:58;98873.19;;;13.56;33.05
40155;BME280;25875;48.202;16.334;2023-04-26T12:20:28;98956.19;;;14.08;33.88
40155;BME280;25875;48.202;16.334;2023-04-26T12:23:03;98995.78;;;14.48;32.04
40155;BME280;25875;48.202;16.334;2023-04-26T12:25:35;98988.16;;;14.55;33.59
40155;BME280;25875;48.202;16.334;2023-04-26T12:28:03;98986.91;;;14.60;33.11
40155;BME280;25875;48.202;16.334;2023-04-26T12:30:31;98978.91;;;14.60;33.01
40155;BME280;25875;48.202;16.334;2023-04-26T12:32:57;98483.56;;;11.61;32.89
40155;BME280;25875;48.202;16.334;2023-04-26T12:35:24;98998.72;;;14.56;32.75
40155;BME280;25875;48.202;16.334;2023-04-26T12:37:51;98798.13;;;13.27;33.05
40155;BME280;25875;48.202;16.334;2023-04-26T12:40:23;98999.75;;;14.31;32.99
40155;BME280;25875;48.202;16.334;2023-04-26T12:42:50;98983.09;;;14.17;33.99
40155;BME280;25875;48.202;16.334;2023-04-26T12:45:17;99000.44;;;14.22;34.21
40155;BME280;25875;48.202;16.334;2023-04-26T12:47:45;99005.25;;;14.17;34.01
40155;BME280;25875;48.202;16.334;2023-04-26T12:50:12;99006.22;;;14.16;34.58
40155;BME280;25875;48.202;16.334;2023-04-26T12:52:43;99005.00;;;14.09;34.53
40155;BME280;25875;48.202;16.334;2023-04-26T12:55:11;98939.16;;;13.63;34.88
40155;BME280;25875;48.202;16.334;2023-04-26T12:57:40;98980.19;;;13.85;34.56
40155;BME280;25875;48.202;16.334;2023-04-26T13:00:09;99001.31;;;13.99;34.50
40155;BME280;25875;48.202;16.334;2023-04-26T13:02:37;98993.44;;;13.97;34.61
40155;BME280;25875;48.202;16.334;2023-04-26T13:05:05;98880.63;;;13.27;34.41